createdAt,value
2023-10-06T00:00:08.057Z,24
2023-10-06T00:02:38.590Z,28
2023-10-06T00:05:09.614Z,20
2023-10-06T00:07:40.704Z,20
2023-10-06T00:10:11.563Z,27
2023-10-06T00:12:42.478Z,24
2023-10-06T00:15:13.082Z,24
2023-10-06T00:17:43.586Z,21
2023-10-06T00:20:14.162Z,24
2023-10-06T00:22:45.241Z,24
2023-10-06T00:25:16.313Z,27
2023-10-06T00:27:46.985Z,21
2023-10-06T00:30:17.793Z,25
2023-10-06T00:32:48.399Z,24
2023-10-06T00:35:18.972Z,20
2023-10-06T00:37:49.378Z,20
2023-10-06T00:40:20.346Z,20
2023-10-06T00:42:51.338Z,22
2023-10-06T00:45:22.707Z,20
2023-10-06T00:47:53.266Z,25
2023-10-06T00:50:22.665Z,20
2023-10-06T00:52:53.908Z,20
2023-10-06T00:55:24.423Z,20
2023-10-06T00:57:55.292Z,20
2023-10-06T01:00:25.983Z,20
2023-10-06T01:02:56.674Z,20
2023-10-06T01:05:27.405Z,19
2023-10-06T01:07:58.310Z,29
2023-10-06T01:10:29.667Z,25
2023-10-06T01:13:00.572Z,23
2023-10-06T01:15:31.776Z,24
2023-10-06T01:18:02.628Z,24
2023-10-06T01:20:33.750Z,24
2023-10-06T01:23:04.756Z,24
2023-10-06T01:25:35.348Z,28
2023-10-06T01:28:05.762Z,28
2023-10-06T01:30:36.569Z,31
2023-10-06T01:33:07.474Z,27
2023-10-06T01:35:38.237Z,27
2023-10-06T01:38:08.840Z,28
2023-10-06T01:40:39.308Z,31
2023-10-06T01:43:10.570Z,32
2023-10-06T01:45:41.107Z,28
2023-10-06T01:48:11.967Z,36
2023-10-06T01:50:42.312Z,37
2023-10-06T01:53:12.861Z,33
2023-10-06T01:55:43.552Z,28
2023-10-06T01:58:13.824Z,31
2023-10-06T02:00:44.622Z,24
2023-10-06T02:03:15.118Z,24
2023-10-06T02:05:45.601Z,28
2023-10-06T02:08:16.208Z,28
2023-10-06T02:10:46.885Z,24
2023-10-06T02:13:17.906Z,26
2023-10-06T02:15:48.929Z,28
2023-10-06T02:18:19.820Z,32
2023-10-06T02:20:51.098Z,30
2023-10-06T02:23:21.949Z,27
2023-10-06T02:25:53.318Z,28
2023-10-06T02:28:24.338Z,32
2023-10-06T02:30:58.987Z,32
2023-10-06T02:33:31.803Z,28
2023-10-06T02:36:00.432Z,28
2023-10-06T02:38:31.443Z,28
2023-10-06T02:41:01.971Z,35
2023-10-06T02:43:33.218Z,32
2023-10-06T02:46:08.233Z,37
2023-10-06T02:48:39.560Z,34
2023-10-06T02:51:10.812Z,31
2023-10-06T02:53:41.772Z,31
2023-10-06T02:56:12.927Z,36
2023-10-06T02:58:43.849Z,31
2023-10-06T03:01:14.576Z,28
2023-10-06T03:03:43.881Z,31
2023-10-06T03:06:14.609Z,32
2023-10-06T03:08:45.362Z,28
2023-10-06T03:11:17.689Z,28
2023-10-06T03:13:49.481Z,28
2023-10-06T03:16:20.484Z,28
2023-10-06T03:18:51.019Z,32
2023-10-06T03:21:22.518Z,33
2023-10-06T03:23:53.288Z,32
2023-10-06T03:26:24.351Z,32
2023-10-06T03:28:55.098Z,36
2023-10-06T03:31:24.108Z,32
2023-10-06T03:33:55.189Z,36
2023-10-06T03:36:25.699Z,36
2023-10-06T03:38:56.588Z,32
2023-10-06T03:41:27.062Z,32
2023-10-06T03:43:57.462Z,35
2023-10-06T03:46:28.502Z,40
2023-10-06T03:48:59.769Z,42
2023-10-06T03:51:30.509Z,39
2023-10-06T03:54:01.361Z,37
2023-10-06T03:56:32.935Z,36
2023-10-06T03:59:03.917Z,36
2023-10-06T04:01:34.623Z,36
2023-10-06T04:04:05.245Z,32
2023-10-06T04:06:37.257Z,40
2023-10-06T04:09:08.281Z,40
2023-10-06T04:11:38.716Z,39
2023-10-06T04:14:09.176Z,40
2023-10-06T04:16:40.509Z,36
2023-10-06T04:19:11.525Z,36
2023-10-06T04:21:41.731Z,44
2023-10-06T04:26:43.496Z,37
2023-10-06T04:29:13.882Z,36
2023-10-06T04:31:44.675Z,39
2023-10-06T04:34:14.885Z,40
2023-10-06T04:36:45.389Z,44
2023-10-06T04:39:15.963Z,44
2023-10-06T04:41:46.359Z,42
2023-10-06T04:44:23.276Z,34
2023-10-06T04:46:53.914Z,36
2023-10-06T04:49:24.501Z,36
2023-10-06T04:51:55.682Z,35
2023-10-06T04:54:26.484Z,36
2023-10-06T04:56:57.232Z,42
2023-10-06T04:59:27.629Z,41
2023-10-06T05:01:58.595Z,40
2023-10-06T05:04:29.460Z,38
2023-10-06T05:07:05.862Z,33
2023-10-06T05:09:36.084Z,36
2023-10-06T05:12:06.277Z,40
2023-10-06T05:14:37.433Z,40
2023-10-06T05:17:07.851Z,40
2023-10-06T05:19:38.509Z,35
2023-10-06T05:22:09.879Z,36
2023-10-06T05:24:40.457Z,37
2023-10-06T05:27:11.242Z,36
2023-10-06T05:29:42.292Z,40
2023-10-06T05:32:13.440Z,38
2023-10-06T05:34:43.890Z,37
2023-10-06T05:37:14.615Z,36
2023-10-06T05:39:45.040Z,40
2023-10-06T05:42:15.589Z,37
2023-10-06T05:44:46.346Z,36
2023-10-06T05:47:16.800Z,39
2023-10-06T05:49:47.688Z,36
2023-10-06T05:52:18.909Z,40
2023-10-06T05:54:49.968Z,43
2023-10-06T05:57:21.004Z,36
2023-10-06T05:59:51.405Z,36
2023-10-06T06:02:22.250Z,36
2023-10-06T06:04:53.021Z,36
2023-10-06T06:07:23.946Z,36
2023-10-06T06:09:54.216Z,43
2023-10-06T06:12:24.805Z,33
2023-10-06T06:14:55.362Z,31
2023-10-06T06:17:26.540Z,40
2023-10-06T06:20:04.612Z,40
2023-10-06T06:22:27.795Z,32
2023-10-06T06:24:58.381Z,32
2023-10-06T06:27:29.267Z,28
2023-10-06T06:30:00.829Z,28
2023-10-06T06:32:31.680Z,32
2023-10-06T06:35:01.764Z,32
2023-10-06T06:37:32.453Z,28
2023-10-06T06:40:02.975Z,32
2023-10-06T06:42:33.212Z,32
2023-10-06T06:45:04.123Z,32
2023-10-06T06:47:34.915Z,32
2023-10-06T06:50:05.275Z,32
2023-10-06T06:52:36.197Z,39
2023-10-06T06:55:06.944Z,32
2023-10-06T06:57:37.467Z,35
2023-10-06T07:00:08.422Z,28
2023-10-06T07:02:39.275Z,28
2023-10-06T07:05:10.064Z,30
2023-10-06T07:07:40.550Z,31
2023-10-06T07:10:11.220Z,28
2023-10-06T07:12:41.653Z,32
2023-10-06T07:15:12.049Z,32
2023-10-06T07:17:42.685Z,29
2023-10-06T07:20:13.206Z,28
2023-10-06T07:22:43.604Z,32
2023-10-06T07:25:14.006Z,32
2023-10-06T07:27:44.427Z,32
2023-10-06T07:30:14.736Z,30
2023-10-06T07:32:45.693Z,32
2023-10-06T07:35:15.969Z,28
2023-10-06T07:37:46.848Z,31
2023-10-06T07:40:17.918Z,28
2023-10-06T07:42:48.519Z,28
2023-10-06T07:45:19.983Z,28
2023-10-06T07:47:50.423Z,31
2023-10-06T07:50:20.979Z,31
2023-10-06T07:52:51.416Z,29
2023-10-06T07:55:22.243Z,29
2023-10-06T07:57:53.445Z,24
2023-10-06T08:00:23.981Z,28
2023-10-06T08:02:55.081Z,24
2023-10-06T08:05:27.747Z,28
2023-10-06T08:07:56.732Z,28
2023-10-06T08:10:27.219Z,32
2023-10-06T08:12:58.115Z,24
2023-10-06T08:15:29.161Z,28
2023-10-06T08:18:00.334Z,28
2023-10-06T08:20:31.796Z,28
2023-10-06T08:23:02.362Z,20
2023-10-06T08:25:45.749Z,28
2023-10-06T08:28:04.056Z,24
2023-10-06T08:30:34.439Z,20
2023-10-06T08:33:05.092Z,20
2023-10-06T08:35:35.322Z,20
2023-10-06T08:38:05.810Z,20
2023-10-06T08:40:36.341Z,28
2023-10-06T08:43:06.688Z,24
2023-10-06T08:45:37.495Z,24
2023-10-06T08:48:08.458Z,24
2023-10-06T08:50:38.851Z,20
2023-10-06T08:53:09.864Z,20
2023-10-06T08:55:40.730Z,18
2023-10-06T08:58:10.916Z,20
2023-10-06T09:00:41.572Z,21
2023-10-06T09:03:12.237Z,20
2023-10-06T09:05:42.634Z,22
2023-10-06T09:08:13.648Z,18
2023-10-06T09:10:44.572Z,22
2023-10-06T09:13:15.372Z,20
2023-10-06T09:15:46.396Z,16
2023-10-06T09:18:17.388Z,20
2023-10-06T09:20:48.249Z,18
2023-10-06T09:23:18.804Z,16
2023-10-06T09:25:49.758Z,16
2023-10-06T09:28:20.000Z,17
2023-10-06T09:30:50.718Z,20
2023-10-06T09:33:21.519Z,16
2023-10-06T09:35:51.889Z,16
2023-10-06T09:38:22.886Z,16
2023-10-06T09:40:53.687Z,15
2023-10-06T09:43:24.393Z,12
2023-10-06T09:45:54.847Z,16
2023-10-06T09:48:25.486Z,20
2023-10-06T09:50:56.262Z,18
2023-10-06T09:53:26.603Z,12
2023-10-06T09:55:57.307Z,16
2023-10-06T09:58:27.796Z,20
2023-10-06T10:00:58.958Z,16
2023-10-06T10:03:29.936Z,16
2023-10-06T10:06:00.403Z,13
2023-10-06T10:08:31.199Z,20
2023-10-06T10:11:01.974Z,21
2023-10-06T10:13:33.191Z,16
2023-10-06T10:16:03.886Z,24
2023-10-06T10:18:35.068Z,18
2023-10-06T10:21:05.765Z,16
2023-10-06T10:23:36.434Z,12
2023-10-06T10:26:07.577Z,12
2023-10-06T10:28:38.638Z,14
2023-10-06T10:31:09.166Z,16
2023-10-06T10:33:40.447Z,12
2023-10-06T10:36:10.803Z,12
2023-10-06T10:38:41.578Z,12
2023-10-06T10:41:12.549Z,12
2023-10-06T10:43:43.368Z,8
2023-10-06T10:46:13.510Z,11
2023-10-06T10:48:44.450Z,12
2023-10-06T10:51:15.138Z,12
2023-10-06T10:53:45.396Z,12
2023-10-06T10:56:16.386Z,8
2023-10-06T10:58:47.353Z,8
2023-10-06T11:01:18.232Z,14
2023-10-06T11:03:48.804Z,12
2023-10-06T11:06:17.976Z,12
2023-10-06T11:08:48.448Z,12
2023-10-06T11:11:18.740Z,12
2023-10-06T11:13:55.497Z,12
2023-10-06T11:16:19.830Z,12
2023-10-06T11:18:50.828Z,14
2023-10-06T11:21:21.973Z,16
2023-10-06T11:23:53.284Z,18
2023-10-06T11:26:24.378Z,16
2023-10-06T11:28:55.138Z,16
2023-10-06T11:31:25.671Z,19
2023-10-06T11:33:56.285Z,23
2023-10-06T11:36:26.884Z,17
2023-10-06T11:38:57.120Z,16
2023-10-06T11:41:27.531Z,15
2023-10-06T11:43:57.955Z,16
2023-10-06T11:46:28.864Z,12
2023-10-06T11:48:59.591Z,12
2023-10-06T11:51:30.428Z,12
2023-10-06T11:54:00.595Z,12
2023-10-06T11:56:31.136Z,13
2023-10-06T11:59:01.422Z,12
2023-10-06T12:01:32.110Z,19
2023-10-06T12:04:02.665Z,20
2023-10-06T12:06:33.092Z,20
2023-10-06T12:09:06.764Z,20
2023-10-06T12:11:37.759Z,25
2023-10-06T12:14:09.104Z,24
2023-10-06T12:16:39.930Z,24
2023-10-06T12:19:10.845Z,24
2023-10-06T12:21:42.087Z,22
2023-10-06T12:24:12.510Z,21
2023-10-06T12:26:43.567Z,20
2023-10-06T12:29:13.717Z,24
2023-10-06T12:31:43.944Z,24
2023-10-06T12:34:14.573Z,29
2023-10-06T12:36:45.284Z,28
2023-10-06T12:39:16.381Z,28
2023-10-06T12:41:50.236Z,28
2023-10-06T12:44:20.689Z,28
2023-10-06T12:46:51.455Z,28
2023-10-06T12:49:21.700Z,28
2023-10-06T12:51:53.010Z,28
2023-10-06T12:54:23.973Z,26
2023-10-06T12:56:55.183Z,27
2023-10-06T12:59:25.687Z,24
2023-10-06T13:01:56.414Z,27
2023-10-06T13:04:26.822Z,28
2023-10-06T13:06:57.348Z,20
2023-10-06T13:09:27.488Z,24
2023-10-06T13:11:56.623Z,25
2023-10-06T13:14:26.957Z,24
2023-10-06T13:16:58.026Z,28
2023-10-06T13:19:26.864Z,28
2023-10-06T13:21:57.284Z,25
2023-10-06T13:24:28.244Z,24
2023-10-06T13:26:59.410Z,20
2023-10-06T13:29:30.465Z,28
2023-10-06T13:32:01.018Z,15
2023-10-06T13:34:31.286Z,16
2023-10-06T13:37:01.884Z,20
2023-10-06T13:39:32.495Z,20
2023-10-06T13:42:04.174Z,14
2023-10-06T13:44:33.696Z,19
2023-10-06T13:47:04.673Z,17
2023-10-06T13:49:35.282Z,16
2023-10-06T13:52:06.158Z,11
2023-10-06T13:54:36.735Z,12
2023-10-06T13:57:07.197Z,12
2023-10-06T13:59:37.516Z,16
2023-10-06T14:02:08.334Z,12
2023-10-06T14:04:38.601Z,13
2023-10-06T14:07:13.075Z,12
2023-10-06T14:09:43.900Z,8
2023-10-06T14:12:14.672Z,12
2023-10-06T14:14:45.443Z,15
2023-10-06T14:17:16.870Z,8
2023-10-06T14:19:47.314Z,8
2023-10-06T14:22:18.435Z,8
2023-10-06T14:24:49.487Z,8
2023-10-06T14:27:20.312Z,6
2023-10-06T14:29:51.202Z,8
2023-10-06T14:32:22.107Z,8
2023-10-06T14:34:50.637Z,11
2023-10-06T14:37:20.378Z,21
2023-10-06T14:39:51.458Z,8
2023-10-06T14:42:21.640Z,8
2023-10-06T14:44:52.361Z,8
2023-10-06T14:47:23.137Z,22
2023-10-06T14:49:53.949Z,16
2023-10-06T14:52:24.828Z,8
2023-10-06T14:54:55.494Z,8
2023-10-06T14:57:26.387Z,12
2023-10-06T14:59:56.883Z,8
2023-10-06T15:02:27.622Z,8
2023-10-06T15:04:59.340Z,8
2023-10-06T15:07:35.886Z,8
2023-10-06T15:10:06.230Z,11
2023-10-06T15:12:36.430Z,9
2023-10-06T15:15:06.766Z,11
2023-10-06T15:17:37.712Z,14
2023-10-06T15:20:08.709Z,12
2023-10-06T15:22:38.993Z,12
2023-10-06T15:25:09.913Z,16
2023-10-06T15:27:40.221Z,14
2023-10-06T15:30:11.166Z,14
2023-10-06T15:32:41.562Z,15
2023-10-06T15:35:11.823Z,16
2023-10-06T15:37:42.563Z,16
2023-10-06T15:40:12.942Z,16
2023-10-06T15:42:43.290Z,20
2023-10-06T15:45:14.528Z,20
2023-10-06T15:47:43.348Z,15
2023-10-06T15:50:22.097Z,16
2023-10-06T15:52:44.736Z,16
2023-10-06T15:55:18.949Z,12
2023-10-06T15:57:49.745Z,12
2023-10-06T16:00:18.597Z,12
2023-10-06T16:02:54.765Z,8
2023-10-06T16:05:25.680Z,17
2023-10-06T16:07:56.317Z,16
2023-10-06T16:10:26.846Z,12
2023-10-06T16:12:57.153Z,20
2023-10-06T16:15:27.633Z,10
2023-10-06T16:17:58.001Z,12
2023-10-06T16:20:28.958Z,12
2023-10-06T16:23:00.027Z,8
2023-10-06T16:25:30.578Z,12
2023-10-06T16:28:03.392Z,12
2023-10-06T16:30:32.362Z,8
2023-10-06T16:33:02.669Z,8
2023-10-06T16:35:32.906Z,8
2023-10-06T16:38:03.373Z,16
2023-10-06T16:40:34.230Z,16
2023-10-06T16:43:03.024Z,10
2023-10-06T16:45:33.722Z,8
2023-10-06T16:48:04.108Z,8
2023-10-06T16:50:34.296Z,12
2023-10-06T16:53:05.252Z,14
2023-10-06T16:55:36.028Z,24
2023-10-06T16:58:07.072Z,32
2023-10-06T17:00:37.280Z,44
2023-10-06T17:03:08.154Z,63
2023-10-06T17:05:38.404Z,45
2023-10-06T17:08:08.800Z,44
2023-10-06T17:10:38.827Z,44
2023-10-06T17:13:09.482Z,51
2023-10-06T17:15:39.609Z,41
2023-10-06T17:18:10.072Z,44
2023-10-06T17:20:40.867Z,53
2023-10-06T17:23:11.686Z,44
2023-10-06T17:25:42.386Z,38
2023-10-06T17:28:13.510Z,60
2023-10-06T17:30:44.353Z,40
2023-10-06T17:33:14.666Z,48
2023-10-06T17:35:45.225Z,54
2023-10-06T17:38:16.098Z,36
2023-10-06T17:40:46.142Z,48
2023-10-06T17:43:16.440Z,44
2023-10-06T17:45:46.435Z,50
2023-10-06T17:48:17.310Z,38
2023-10-06T17:50:47.602Z,40
2023-10-06T17:53:18.337Z,44
2023-10-06T17:55:49.150Z,41
2023-10-06T17:58:19.566Z,44
2023-10-06T18:00:50.308Z,40
2023-10-06T18:03:21.057Z,36
2023-10-06T18:05:51.285Z,36
2023-10-06T18:08:21.441Z,39
2023-10-06T18:10:51.569Z,37
2023-10-06T18:13:21.920Z,44
2023-10-06T18:15:52.093Z,44
2023-10-06T18:18:22.400Z,47
2023-10-06T18:20:53.040Z,48
2023-10-06T18:23:23.836Z,44
2023-10-06T18:25:55.988Z,47
2023-10-06T18:28:26.752Z,47
2023-10-06T18:31:03.841Z,48
2023-10-06T18:33:34.829Z,48
2023-10-06T18:36:04.883Z,48
2023-10-06T18:38:35.261Z,42
2023-10-06T18:41:05.374Z,36
2023-10-06T18:43:35.994Z,32
2023-10-06T18:46:06.339Z,34
2023-10-06T18:48:36.563Z,30
2023-10-06T18:51:06.883Z,32
2023-10-06T18:53:37.052Z,36
2023-10-06T18:56:07.439Z,36
2023-10-06T18:58:37.888Z,35
2023-10-06T19:01:09.122Z,36
2023-10-06T19:03:39.369Z,41
2023-10-06T19:06:09.099Z,40
2023-10-06T19:08:39.211Z,41
2023-10-06T19:11:09.552Z,37
2023-10-06T19:13:39.913Z,36
2023-10-06T19:16:10.221Z,40
2023-10-06T19:18:40.732Z,37
2023-10-06T19:21:10.740Z,40
2023-10-06T19:23:41.061Z,37
2023-10-06T19:26:11.256Z,47
2023-10-06T19:28:41.075Z,36
2023-10-06T19:31:11.171Z,32
2023-10-06T19:33:42.053Z,36
2023-10-06T19:36:10.803Z,40
2023-10-06T19:38:41.035Z,32
2023-10-06T19:41:11.389Z,40
2023-10-06T19:43:43.849Z,36
2023-10-06T19:46:15.644Z,40
2023-10-06T19:48:45.423Z,36
2023-10-06T19:51:15.979Z,32
2023-10-06T19:53:46.366Z,35
2023-10-06T19:56:16.923Z,36
2023-10-06T19:58:47.157Z,34
2023-10-06T20:01:17.583Z,32
2023-10-06T20:03:48.458Z,32
2023-10-06T20:06:18.767Z,36
2023-10-06T20:08:48.844Z,36
2023-10-06T20:11:19.278Z,33
2023-10-06T20:13:49.679Z,37
2023-10-06T20:16:19.800Z,32
2023-10-06T20:18:49.860Z,33
2023-10-06T20:21:18.308Z,33
2023-10-06T20:23:48.301Z,32
2023-10-06T20:26:18.729Z,32
2023-10-06T20:28:49.029Z,32
2023-10-06T20:31:19.126Z,35
2023-10-06T20:33:49.171Z,31
2023-10-06T20:36:19.338Z,32
2023-10-06T20:38:50.400Z,38
2023-10-06T20:41:20.355Z,36
2023-10-06T20:43:50.493Z,44
2023-10-06T20:46:19.246Z,44
2023-10-06T20:48:50.037Z,48
2023-10-06T20:51:19.962Z,36
2023-10-06T20:53:49.918Z,38
2023-10-06T20:56:20.354Z,44
2023-10-06T20:58:50.493Z,42
2023-10-06T21:01:20.675Z,39
2023-10-06T21:03:51.373Z,33
2023-10-06T21:06:21.586Z,35
2023-10-06T21:08:52.535Z,36
2023-10-06T21:11:26.939Z,32
2023-10-06T21:13:57.383Z,47
2023-10-06T21:16:27.496Z,48
2023-10-06T21:18:57.410Z,44
2023-10-06T21:21:27.740Z,39
2023-10-06T21:23:57.915Z,34
2023-10-06T21:26:28.728Z,40
2023-10-06T21:28:58.746Z,37
2023-10-06T21:31:28.782Z,36
2023-10-06T21:33:57.768Z,42
2023-10-06T21:36:28.346Z,36
2023-10-06T21:38:58.762Z,32
2023-10-06T21:41:29.058Z,40
2023-10-06T21:43:59.184Z,32
2023-10-06T21:46:29.323Z,32
2023-10-06T21:48:59.385Z,32
2023-10-06T21:51:29.606Z,33
2023-10-06T21:53:59.843Z,32
2023-10-06T21:56:30.140Z,32
2023-10-06T21:59:00.897Z,34
2023-10-06T22:01:31.081Z,32
2023-10-06T22:04:01.811Z,32
2023-10-06T22:06:33.485Z,28
2023-10-06T22:09:02.416Z,28
2023-10-06T22:11:33.631Z,28
2023-10-06T22:14:05.284Z,32
2023-10-06T22:16:35.517Z,28
2023-10-06T22:19:05.998Z,30
2023-10-06T22:21:36.554Z,28
2023-10-06T22:24:10.158Z,25
2023-10-06T22:26:40.190Z,24
2023-10-06T22:29:10.596Z,24
2023-10-06T22:31:40.749Z,31
2023-10-06T22:34:11.095Z,24
2023-10-06T22:36:41.199Z,28
2023-10-06T22:39:11.542Z,28
2023-10-06T22:41:41.904Z,37
2023-10-06T22:44:12.197Z,35
2023-10-06T22:46:43.046Z,32
2023-10-06T22:49:13.336Z,33
2023-10-06T22:51:44.124Z,32
2023-10-06T22:54:14.711Z,39
2023-10-06T22:56:44.972Z,36
2023-10-06T22:59:15.307Z,36
2023-10-06T23:01:45.990Z,30
2023-10-06T23:04:16.599Z,33
2023-10-06T23:06:46.475Z,36
2023-10-06T23:09:16.870Z,36
2023-10-06T23:11:47.176Z,44
2023-10-06T23:14:17.749Z,40
2023-10-06T23:16:48.465Z,44
2023-10-06T23:19:19.774Z,36
2023-10-06T23:21:50.373Z,32
2023-10-06T23:24:20.845Z,36
2023-10-06T23:26:51.424Z,31
2023-10-06T23:29:21.742Z,28
2023-10-06T23:31:52.488Z,32
2023-10-06T23:34:22.996Z,32
2023-10-06T23:36:53.661Z,33
2023-10-06T23:39:22.843Z,29
2023-10-06T23:41:53.007Z,25
2023-10-06T23:44:23.995Z,27
2023-10-06T23:46:54.548Z,27
2023-10-06T23:49:24.543Z,32
2023-10-06T23:51:53.710Z,32
2023-10-06T23:54:24.312Z,28
2023-10-06T23:56:58.390Z,32
2023-10-06T23:59:28.844Z,32
